Time;durP1;ratioP1;P1;durP2;ratioP2;P2;SDS_P1;SDS_P2;PMS_P1;PMS_P2;Temp;Humidity;BMP_temperature;BMP_pressure;BME280_temperature;BME280_humidity;BME280_pressure;Samples;Min_cycle;Max_cycle;Signal;HPM_P1;HPM_P2
2023/07/14 00:00:35;;;;;;;7.47;4.95;;;16.00;99.90;;;;;;5055518;28;20044;-78
2023/07/14 00:03:01;;;;;;;7.80;4.93;;;16.00;99.90;;;;;;5053473;28;20518;-78
2023/07/14 00:05:32;;;;;;;9.35;5.40;;;15.90;99.90;;;;;;5055120;28;20032;-79
2023/07/14 00:07:58;;;;;;;10.93;6.10;;;15.90;99.90;;;;;;5069358;28;20493;-79
2023/07/14 00:10:30;;;;;;;9.52;5.95;;;15.90;99.90;;;;;;5055179;28;20037;-79
2023/07/14 00:12:57;;;;;;;10.68;6.03;;;16.00;99.90;;;;;;5070326;28;20075;-79
2023/07/14 00:15:23;;;;;;;9.20;5.57;;;16.00;99.90;;;;;;5065585;28;20044;-78
2023/07/14 00:17:55;;;;;;;9.63;5.78;;;16.00;99.90;;;;;;5051967;28;20071;-78
2023/07/14 00:20:27;;;;;;;9.25;5.40;;;15.90;99.90;;;;;;5051733;28;20037;-78
2023/07/14 00:22:53;;;;;;;;;;;15.90;99.90;;;;;;5051883;28;20086;-78
2023/07/14 00:25:22;;;;;;;9.10;5.18;;;15.90;99.90;;;;;;5053729;28;19916;-79
2023/07/14 00:27:52;;;;;;;8.73;5.15;;;15.80;99.90;;;;;;5045481;28;20056;-78
2023/07/14 00:30:23;;;;;;;8.57;5.55;;;15.80;99.90;;;;;;5063584;28;20446;-78
2023/07/14 00:32:51;;;;;;;8.65;5.68;;;15.80;99.90;;;;;;5054917;28;20063;-78
2023/07/14 00:35:29;;;;;;;10.00;5.80;;;15.70;99.90;;;;;;5054903;28;20051;-78
2023/07/14 00:37:56;;;;;;;9.80;5.38;;;15.70;99.90;;;;;;5053602;28;20059;-78
2023/07/14 00:40:28;;;;;;;9.00;5.28;;;15.70;99.90;;;;;;5053226;28;20040;-79
2023/07/14 00:42:56;;;;;;;10.65;5.57;;;15.80;99.90;;;;;;5054826;28;20516;-78
2023/07/14 00:45:24;;;;;;;9.27;6.03;;;15.80;99.90;;;;;;5053551;28;20048;-79
2023/07/14 00:47:54;;;;;;;10.00;5.97;;;15.80;99.90;;;;;;5054891;28;20435;-78
2023/07/14 00:50:41;;;;;;;9.93;6.38;;;15.80;99.90;;;;;;5052639;28;20045;-78
2023/07/14 00:53:15;;;;;;;11.30;6.68;;;15.80;99.90;;;;;;5052605;28;20485;-78
2023/07/14 00:55:46;;;;;;;10.95;6.65;;;15.70;99.90;;;;;;5034806;28;20048;-78
2023/07/14 00:58:19;;;;;;;11.57;6.15;;;15.70;99.90;;;;;;5035825;28;20099;-79
2023/07/14 01:01:00;;;;;;;10.63;6.88;;;15.70;99.90;;;;;;5071187;28;20162;-78
2023/07/14 01:03:26;;;;;;;10.80;6.97;;;15.70;99.90;;;;;;5053205;28;20043;-80
2023/07/14 01:05:52;;;;;;;9.80;6.60;;;15.70;99.90;;;;;;5071341;28;20401;-79
2023/07/14 01:08:19;;;;;;;12.32;7.13;;;15.60;99.90;;;;;;5068056;28;20043;-79
2023/07/14 01:10:46;;;;;;;11.20;7.63;;;15.70;99.90;;;;;;5051381;28;20425;-79
2023/07/14 01:13:12;;;;;;;11.85;7.63;;;15.70;99.90;;;;;;5051375;28;20454;-79
2023/07/14 01:15:39;;;;;;;10.48;7.90;;;15.70;99.90;;;;;;5060599;28;20129;-79
2023/07/14 01:18:07;;;;;;;11.52;7.72;;;15.70;99.90;;;;;;5071594;28;20045;-79
2023/07/14 01:20:35;;;;;;;11.55;8.00;;;15.70;99.90;;;;;;5057048;28;20408;-79
2023/07/14 01:23:23;;;;;;;13.43;8.43;;;15.70;99.90;;;;;;5073449;28;20068;-80
2023/07/14 01:26:13;;;;;;;14.57;8.15;;;15.80;99.90;;;;;;5074639;28;20040;-80
2023/07/14 01:28:39;;;;;;;11.57;8.20;;;15.80;99.90;;;;;;5056767;28;20441;-81
2023/07/14 01:31:08;;;;;;;11.88;8.20;;;15.80;99.90;;;;;;5037781;28;20045;-81
2023/07/14 01:33:33;;;;;;;13.02;8.77;;;15.80;99.90;;;;;;5059137;28;20040;-80
2023/07/14 01:36:00;;;;;;;13.68;9.05;;;15.70;99.90;;;;;;5048582;28;20473;-80
2023/07/14 01:38:26;;;;;;;14.57;9.40;;;15.70;99.90;;;;;;5052292;28;20123;-81
2023/07/14 01:40:53;;;;;;;13.52;9.50;;;15.70;99.90;;;;;;5074958;28;20041;-80
2023/07/14 01:43:19;;;;;;;15.43;9.85;;;15.60;99.90;;;;;;5074319;28;20091;-80
2023/07/14 01:46:00;;;;;;;14.95;9.82;;;15.60;99.90;;;;;;5074681;28;20041;-81
2023/07/14 01:48:31;;;;;;;13.13;9.52;;;15.60;99.90;;;;;;5061344;28;20033;-80
2023/07/14 01:51:01;;;;;;;13.10;10.00;;;15.50;99.90;;;;;;5073924;28;20107;-79
2023/07/14 01:53:42;;;;;;;15.40;9.50;;;15.40;99.90;;;;;;5054029;28;20039;-78
2023/07/14 01:56:11;;;;;;;13.55;10.40;;;15.40;99.90;;;;;;5062304;28;20044;-78
2023/07/14 01:58:57;;;;;;;14.88;9.98;;;15.40;99.90;;;;;;5062258;28;20032;-78
2023/07/14 02:01:25;;;;;;;14.35;9.48;;;15.50;99.90;;;;;;5057430;28;20048;-78
2023/07/14 02:03:54;;;;;;;14.82;9.07;;;15.50;99.90;;;;;;5068863;28;20048;-78
2023/07/14 02:06:20;;;;;;;16.13;9.60;;;15.50;99.90;;;;;;5058923;28;20561;-78
2023/07/14 02:08:46;;;;;;;15.18;10.43;;;15.50;99.90;;;;;;5062299;28;20408;-78
2023/07/14 02:11:20;;;;;;;14.65;10.27;;;15.50;99.90;;;;;;5036725;28;20045;-79
2023/07/14 02:13:46;;;;;;;16.30;10.05;;;15.50;99.90;;;;;;5042415;28;20040;-78
2023/07/14 02:16:15;;;;;;;15.07;9.73;;;15.40;99.90;;;;;;5059239;28;20036;-79
2023/07/14 02:18:42;;;;;;;14.13;10.15;;;15.40;99.90;;;;;;5067304;28;20059;-79
2023/07/14 02:21:09;;;;;;;13.85;9.65;;;15.30;99.90;;;;;;5049133;28;20086;-79
2023/07/14 02:23:38;;;;;;;14.75;10.60;;;15.30;99.90;;;;;;5072108;28;20051;-78
2023/07/14 02:26:32;;;;;;;11.90;10.00;;;15.20;99.90;;;;;;5042909;28;20036;-78
2023/07/14 02:28:58;;;;;;;12.80;9.98;;;15.20;99.90;;;;;;5054730;28;20041;-78
2023/07/14 02:31:35;;;;;;;13.60;9.35;;;15.20;99.90;;;;;;5052520;28;20043;-78
2023/07/14 02:34:01;;;;;;;11.13;8.68;;;15.20;99.90;;;;;;5079036;28;20040;-78
2023/07/14 02:36:43;;;;;;;14.65;9.57;;;15.10;99.90;;;;;;5056912;28;20134;-78
2023/07/14 02:39:09;;;;;;;12.32;9.63;;;15.10;99.90;;;;;;5074167;28;20488;-79
2023/07/14 02:41:42;;;;;;;13.60;9.52;;;15.00;99.90;;;;;;5038437;28;20468;-79
2023/07/14 02:44:12;;;;;;;12.05;9.27;;;15.00;99.90;;;;;;5045452;28;20037;-78
2023/07/14 02:46:41;;;;;;;12.18;8.93;;;15.00;99.90;;;;;;5056426;28;20043;-78
2023/07/14 02:49:07;;;;;;;13.93;8.98;;;15.00;99.90;;;;;;5046611;28;20028;-78
2023/07/14 02:51:33;;;;;;;13.75;9.15;;;15.00;99.90;;;;;;5072879;28;20048;-78
2023/07/14 02:53:58;;;;;;;14.02;9.45;;;15.00;99.90;;;;;;5056255;28;20067;-78
2023/07/14 02:56:24;;;;;;;13.27;9.52;;;15.00;99.90;;;;;;5056251;28;20432;-78
2023/07/14 02:58:50;;;;;;;13.65;9.90;;;15.00;99.90;;;;;;5072872;28;20045;-78
2023/07/14 03:01:17;;;;;;;11.80;9.05;;;15.00;99.90;;;;;;5056077;28;20417;-78
2023/07/14 03:03:45;;;;;;;15.32;9.63;;;15.00;99.90;;;;;;5072625;28;20036;-78
2023/07/14 03:06:13;;;;;;;13.55;9.23;;;15.00;99.90;;;;;;5055159;28;20069;-78
2023/07/14 03:08:39;;;;;;;14.60;9.52;;;14.90;99.90;;;;;;5056025;28;20036;-78
2023/07/14 03:11:05;;;;;;;12.45;9.25;;;14.90;99.90;;;;;;5072690;28;20037;-79
2023/07/14 03:13:31;;;;;;;13.02;8.52;;;14.90;99.90;;;;;;5072719;28;20457;-78
2023/07/14 03:15:57;;;;;;;13.45;9.57;;;14.80;99.90;;;;;;5056168;28;20072;-78
2023/07/14 03:18:23;;;;;;;12.15;8.35;;;14.80;99.90;;;;;;5072421;28;20045;-78
2023/07/14 03:20:54;;;;;;;12.20;8.43;;;14.80;99.90;;;;;;5048197;28;20043;-78
2023/07/14 03:23:20;;;;;;;11.88;9.05;;;14.80;99.90;;;;;;5050277;28;20040;-78
2023/07/14 03:25:47;;;;;;;13.90;8.93;;;14.90;99.90;;;;;;5069284;28;20087;-79
2023/07/14 03:28:13;;;;;;;12.68;8.45;;;14.80;99.90;;;;;;5057073;28;20048;-78
2023/07/14 03:30:40;;;;;;;12.25;9.10;;;14.80;99.90;;;;;;5052950;28;20037;-78
2023/07/14 03:33:06;;;;;;;12.63;9.27;;;14.90;99.90;;;;;;5045500;28;20051;-77
2023/07/14 03:35:32;;;;;;;14.60;8.63;;;14.90;99.90;;;;;;5058844;28;20047;-78
2023/07/14 03:37:57;;;;;;;12.68;8.90;;;14.80;99.90;;;;;;5052882;28;20041;-78
2023/07/14 03:40:23;;;;;;;12.50;8.40;;;14.90;99.90;;;;;;5035329;28;20041;-78
2023/07/14 03:42:49;;;;;;;11.68;8.30;;;14.90;99.90;;;;;;5070590;28;20511;-78
2023/07/14 03:45:14;;;;;;;13.13;9.07;;;14.90;99.90;;;;;;5070642;28;20108;-78
2023/07/14 03:47:40;;;;;;;13.18;8.82;;;14.80;99.90;;;;;;5054205;28;20093;-78
2023/07/14 03:50:08;;;;;;;12.02;9.20;;;14.80;99.90;;;;;;5051631;28;20036;-78
2023/07/14 03:52:33;;;;;;;11.82;8.88;;;14.80;99.90;;;;;;5060770;28;20037;-78
2023/07/14 03:54:59;;;;;;;12.23;8.75;;;14.80;99.90;;;;;;5068779;28;20530;-79
2023/07/14 03:57:25;;;;;;;11.73;8.35;;;14.80;99.90;;;;;;5065737;28;20043;-78
2023/07/14 03:59:51;;;;;;;13.52;9.35;;;14.70;99.90;;;;;;5048757;28;20484;-78
2023/07/14 04:02:17;;;;;;;12.60;9.02;;;14.70;99.90;;;;;;5071890;28;20370;-78
2023/07/14 04:04:43;;;;;;;14.48;8.95;;;14.70;99.90;;;;;;5055183;28;20041;-78
2023/07/14 04:07:09;;;;;;;13.23;8.77;;;14.80;99.90;;;;;;5073144;28;20463;-78
2023/07/14 04:09:34;;;;;;;12.55;8.48;;;14.70;99.90;;;;;;5051692;28;20037;-78
2023/07/14 04:12:00;;;;;;;14.60;8.32;;;14.70;99.90;;;;;;5053903;28;20044;-78
2023/07/14 04:14:26;;;;;;;15.20;8.73;;;14.70;99.90;;;;;;5041442;28;20477;-78
2023/07/14 04:16:51;;;;;;;11.43;7.70;;;14.70;99.90;;;;;;5042529;28;20043;-78
2023/07/14 04:19:17;;;;;;;13.32;8.18;;;14.80;99.90;;;;;;5064398;28;20090;-78
2023/07/14 04:21:42;;;;;;;14.57;7.63;;;14.80;99.90;;;;;;5063300;28;20036;-78
2023/07/14 04:24:08;;;;;;;11.27;7.78;;;14.80;99.90;;;;;;5073376;28;20391;-78
2023/07/14 04:26:34;;;;;;;11.88;8.02;;;14.80;99.90;;;;;;5065225;28;20559;-78
2023/07/14 04:28:59;;;;;;;14.13;7.72;;;14.70;99.90;;;;;;5061124;28;20057;-78
2023/07/14 04:31:28;;;;;;;14.70;7.78;;;14.80;99.90;;;;;;5075009;28;20178;-78
2023/07/14 04:33:54;;;;;;;11.40;7.63;;;14.80;99.90;;;;;;5051496;28;20090;-78
2023/07/14 04:36:19;;;;;;;13.40;7.55;;;14.80;99.90;;;;;;5051537;28;20124;-77
2023/07/14 04:39:10;;;;;;;11.65;7.32;;;14.90;99.90;;;;;;5051732;28;20041;-78
2023/07/14 04:41:36;;;;;;;13.57;7.07;;;14.90;99.90;;;;;;5051480;28;20045;-78
2023/07/14 04:44:13;;;;;;;16.48;8.15;;;15.00;99.90;;;;;;5054553;28;20037;-78
2023/07/14 04:46:39;;;;;;;11.70;7.07;;;15.00;99.90;;;;;;5060842;28;20043;-78
2023/07/14 04:49:06;;;;;;;13.32;8.18;;;15.00;99.90;;;;;;5091639;28;20040;-78
2023/07/14 04:51:33;;;;;;;13.48;7.55;;;15.00;99.90;;;;;;5074749;28;20047;-78
2023/07/14 04:53:59;;;;;;;12.60;7.30;;;15.10;99.90;;;;;;5094000;28;20040;-78
2023/07/14 04:56:25;;;;;;;13.48;8.30;;;15.00;99.90;;;;;;5084203;28;20618;-78
2023/07/14 04:58:51;;;;;;;12.95;7.07;;;15.00;99.90;;;;;;5075111;28;20068;-78
2023/07/14 05:01:16;;;;;;;11.70;8.00;;;15.10;99.90;;;;;;5075029;28;20459;-78
2023/07/14 05:03:43;;;;;;;13.18;7.82;;;15.10;99.90;;;;;;5075576;28;20033;-77
2023/07/14 05:06:10;;;;;;;11.63;7.50;;;15.20;99.90;;;;;;5075013;28;20043;-78
2023/07/14 05:08:36;;;;;;;12.25;7.43;;;15.20;99.90;;;;;;5076158;28;20099;-78
2023/07/14 05:11:05;;;;;;;12.32;7.43;;;15.20;99.90;;;;;;5058521;28;20492;-78
2023/07/14 05:13:32;;;;;;;13.15;8.00;;;15.30;99.90;;;;;;5076004;28;20504;-78
2023/07/14 05:15:58;;;;;;;11.73;7.60;;;15.20;99.90;;;;;;5075136;28;20151;-78
2023/07/14 05:18:24;;;;;;;12.77;7.63;;;15.20;99.90;;;;;;5074934;28;20097;-78
2023/07/14 05:20:51;;;;;;;11.05;7.68;;;15.20;99.90;;;;;;5059964;28;20051;-78
2023/07/14 05:23:17;;;;;;;11.68;7.60;;;15.20;99.90;;;;;;5074524;28;20492;-78
2023/07/14 05:25:44;;;;;;;10.55;7.60;;;15.30;99.90;;;;;;5074256;28;20033;-78
2023/07/14 05:28:10;;;;;;;12.50;7.40;;;15.30;99.90;;;;;;5056545;28;20051;-78
2023/07/14 05:30:36;;;;;;;13.77;7.45;;;15.40;99.90;;;;;;5057901;28;20040;-78
2023/07/14 05:33:02;;;;;;;10.93;7.32;;;15.40;99.90;;;;;;5068974;28;20048;-78
2023/07/14 05:35:28;;;;;;;11.63;7.18;;;15.50;99.90;;;;;;5068447;28;20051;-78
2023/07/14 05:37:56;;;;;;;11.07;7.38;;;15.50;99.90;;;;;;5068309;28;20040;-78
2023/07/14 05:40:22;;;;;;;12.50;7.20;;;15.50;99.90;;;;;;5042138;28;20043;-78
2023/07/14 05:42:48;;;;;;;11.27;7.05;;;15.60;99.90;;;;;;5057703;28;20024;-78
2023/07/14 05:45:14;;;;;;;10.35;7.15;;;15.60;99.90;;;;;;5077784;28;20484;-78
2023/07/14 05:47:45;;;;;;;12.05;6.90;;;15.70;99.90;;;;;;5064592;28;20055;-78
2023/07/14 05:50:11;;;;;;;10.80;7.05;;;15.80;99.90;;;;;;5058088;28;20043;-78
2023/07/14 05:52:36;;;;;;;12.20;6.88;;;15.90;99.90;;;;;;5082806;28;20119;-78
2023/07/14 05:55:05;;;;;;;11.23;6.28;;;15.90;99.90;;;;;;5060504;28;20094;-78
2023/07/14 05:57:32;;;;;;;12.93;6.13;;;15.90;99.90;;;;;;5045261;28;20477;-78
2023/07/14 05:59:58;;;;;;;11.73;6.90;;;16.00;99.90;;;;;;5081945;28;20094;-78
2023/07/14 06:02:24;;;;;;;12.13;6.15;;;16.10;99.90;;;;;;5058436;28;20449;-78
2023/07/14 06:04:49;;;;;;;12.38;6.45;;;16.20;99.90;;;;;;5065752;28;20047;-78
2023/07/14 06:07:18;;;;;;;12.02;6.45;;;16.30;99.90;;;;;;5051617;28;20033;-78
2023/07/14 06:09:44;;;;;;;12.50;6.22;;;16.40;99.90;;;;;;5070392;28;20058;-78
2023/07/14 06:12:11;;;;;;;13.23;6.18;;;16.50;99.90;;;;;;5054047;28;20040;-78
2023/07/14 06:14:38;;;;;;;10.73;5.68;;;16.70;99.90;;;;;;5083793;28;20044;-79
2023/07/14 06:17:05;;;;;;;10.02;5.38;;;16.80;99.90;;;;;;5044500;28;20068;-78
2023/07/14 06:19:31;;;;;;;12.88;5.70;;;16.90;99.90;;;;;;5061077;28;20076;-78
2023/07/14 06:21:58;;;;;;;12.45;5.70;;;16.90;99.90;;;;;;5066018;28;20041;-79
2023/07/14 06:24:24;;;;;;;13.05;6.13;;;17.00;99.90;;;;;;5053452;28;20032;-78
2023/07/14 06:26:50;;;;;;;8.73;4.30;;;17.10;99.90;;;;;;5054356;28;20029;-79
2023/07/14 06:29:16;;;;;;;14.20;6.20;;;17.30;99.90;;;;;;5060437;28;20045;-78
2023/07/14 06:31:43;;;;;;;10.20;6.07;;;17.40;99.90;;;;;;5073599;28;20082;-79
2023/07/14 06:34:08;;;;;;;10.90;5.15;;;17.40;99.90;;;;;;5071831;28;20089;-78
2023/07/14 06:36:34;;;;;;;9.85;5.55;;;17.50;99.90;;;;;;5074524;28;20471;-78
2023/07/14 06:39:00;;;;;;;11.85;6.50;;;17.60;99.90;;;;;;5073496;28;20046;-78
2023/07/14 06:41:26;;;;;;;10.20;5.93;;;17.70;99.90;;;;;;5056452;28;20036;-79
2023/07/14 06:43:53;;;;;;;11.02;6.57;;;17.70;99.90;;;;;;5074399;28;20036;-79
2023/07/14 06:46:19;;;;;;;11.70;5.95;;;17.80;99.90;;;;;;5073096;28;20489;-78
2023/07/14 06:48:45;;;;;;;10.82;6.30;;;17.80;99.90;;;;;;5073044;28;20102;-77
2023/07/14 06:51:13;;;;;;;12.35;5.97;;;17.90;99.90;;;;;;5073342;28;20466;-78
2023/07/14 06:53:40;;;;;;;10.48;5.63;;;18.00;99.90;;;;;;5056279;28;20123;-78
2023/07/14 06:56:07;;;;;;;9.95;5.70;;;18.00;99.90;;;;;;5054955;28;20041;-78
2023/07/14 06:58:33;;;;;;;11.20;4.72;;;18.10;99.90;;;;;;5073056;28;20059;-78
2023/07/14 07:00:59;;;;;;;8.88;4.28;;;18.10;99.90;;;;;;5056295;28;20127;-79
2023/07/14 07:03:25;;;;;;;9.88;4.57;;;18.20;99.90;;;;;;5072751;28;20561;-78
2023/07/14 07:05:51;;;;;;;10.02;5.25;;;18.30;99.90;;;;;;5072972;28;20033;-78
2023/07/14 07:08:18;;;;;;;10.98;4.32;;;18.40;99.90;;;;;;5056035;28;20036;-79
2023/07/14 07:10:44;;;;;;;10.48;4.45;;;18.50;99.90;;;;;;5073022;28;20539;-78
2023/07/14 07:13:10;;;;;;;8.88;4.20;;;18.50;99.90;;;;;;5072819;28;20041;-78
2023/07/14 07:15:36;;;;;;;8.70;4.22;;;18.60;99.90;;;;;;5073707;28;20040;-78
2023/07/14 07:18:03;;;;;;;10.02;4.53;;;18.70;99.90;;;;;;5055752;28;20052;-77
2023/07/14 07:20:29;;;;;;;10.57;4.57;;;18.70;99.90;;;;;;5055721;28;20041;-77
2023/07/14 07:22:55;;;;;;;8.70;3.55;;;18.70;99.90;;;;;;5072741;28;20040;-78
2023/07/14 07:25:21;;;;;;;7.95;3.10;;;18.90;99.90;;;;;;5054518;28;20035;-79
2023/07/14 07:27:47;;;;;;;9.90;3.78;;;19.00;99.90;;;;;;5051694;28;20141;-78
2023/07/14 07:30:14;;;;;;;10.45;3.45;;;19.00;99.90;;;;;;5055703;28;20082;-78
2023/07/14 07:32:41;;;;;;;7.35;3.70;;;19.00;99.90;;;;;;5055521;28;20064;-79
2023/07/14 07:35:08;;;;;;;10.35;3.83;;;19.20;99.90;;;;;;5055531;28;20039;-78
2023/07/14 07:37:33;;;;;;;14.45;4.25;;;19.10;99.90;;;;;;5055510;28;20043;-79
2023/07/14 07:40:00;;;;;;;8.85;3.47;;;19.30;99.90;;;;;;5055494;28;20033;-78
2023/07/14 07:42:27;;;;;;;9.18;3.67;;;19.30;99.90;;;;;;5055364;28;20037;-79
2023/07/14 07:44:53;;;;;;;9.70;4.28;;;19.30;99.90;;;;;;5088818;28;20044;-79
2023/07/14 07:47:18;;;;;;;9.55;4.20;;;19.40;99.90;;;;;;5055621;28;20393;-78
2023/07/14 07:49:44;;;;;;;9.85;4.68;;;19.40;99.90;;;;;;5055617;28;20531;-78
2023/07/14 07:52:11;;;;;;;12.73;4.78;;;19.40;99.90;;;;;;5064093;28;20048;-78
2023/07/14 07:54:38;;;;;;;14.25;4.63;;;19.50;99.90;;;;;;5068919;28;20045;-77
2023/07/14 07:57:07;;;;;;;10.52;4.75;;;19.50;99.90;;;;;;5068164;28;20504;-84
2023/07/14 07:59:33;;;;;;;10.18;5.07;;;19.60;99.90;;;;;;5071919;28;20036;-78
2023/07/14 08:01:59;;;;;;;7.78;4.38;;;19.70;99.90;;;;;;5067256;28;20123;-79
2023/07/14 08:04:26;;;;;;;10.77;4.80;;;19.90;99.90;;;;;;5060342;28;20407;-78
2023/07/14 08:06:52;;;;;;;11.05;5.13;;;20.00;99.90;;;;;;5055174;28;20040;-78
2023/07/14 08:09:18;;;;;;;11.32;4.78;;;20.10;99.90;;;;;;5055339;28;20033;-78
2023/07/14 08:11:44;;;;;;;10.27;4.78;;;20.10;99.90;;;;;;5070966;28;20165;-77
2023/07/14 08:14:15;;;;;;;10.07;4.75;;;20.10;99.90;;;;;;5052556;28;20054;-78
2023/07/14 08:16:41;;;;;;;9.93;5.10;;;20.10;99.90;;;;;;5052043;28;20089;-78
2023/07/14 08:19:07;;;;;;;9.30;4.10;;;20.20;99.90;;;;;;5068674;28;20540;-77
2023/07/14 08:21:35;;;;;;;10.45;4.65;;;20.20;99.90;;;;;;5051311;28;20401;-77
2023/07/14 08:24:02;;;;;;;8.25;3.88;;;20.30;99.90;;;;;;5084690;28;20040;-77
2023/07/14 08:26:27;;;;;;;8.38;4.28;;;20.40;99.90;;;;;;5050293;28;20040;-77
2023/07/14 08:28:53;;;;;;;8.00;3.97;;;20.40;99.90;;;;;;5068916;28;20409;-77
2023/07/14 08:31:19;;;;;;;7.45;3.20;;;20.40;99.90;;;;;;5075941;28;20040;-77
2023/07/14 08:33:45;;;;;;;10.20;2.90;;;20.40;99.90;;;;;;5055977;28;20041;-77
2023/07/14 08:36:12;;;;;;;8.50;3.33;;;20.50;99.90;;;;;;5072717;28;20098;-77
2023/07/14 08:38:39;;;;;;;7.70;3.40;;;20.70;99.90;;;;;;5053056;28;20045;-78
2023/07/14 08:41:23;;;;;;;7.38;3.42;;;20.80;99.90;;;;;;5073189;28;20127;-78
2023/07/14 08:43:59;;;;;;;9.55;3.80;;;21.00;99.90;;;;;;5058811;28;20514;-78
2023/07/14 08:46:51;;;;;;;7.00;3.22;;;20.90;99.90;;;;;;5074324;28;20032;-78
2023/07/14 08:49:31;;;;;;;5.60;2.40;;;20.80;99.90;;;;;;5073755;28;20126;-78
2023/07/14 08:52:13;;;;;;;6.15;2.63;;;20.80;99.90;;;;;;5076845;28;20047;-77
2023/07/14 08:54:54;;;;;;;7.65;2.53;;;20.60;99.90;;;;;;5068309;28;20055;-77
2023/07/14 08:57:22;;;;;;;6.32;2.30;;;20.60;99.90;;;;;;5058777;28;20033;-77
2023/07/14 08:59:52;;;;;;;7.35;2.60;;;20.40;99.90;;;;;;5068091;28;20488;-78
2023/07/14 09:02:41;;;;;;;7.80;2.65;;;20.30;99.90;;;;;;5072104;28;20040;-77
2023/07/14 09:05:27;;;;;;;8.90;2.65;;;20.30;99.90;;;;;;5058423;28;20066;-77
2023/07/14 09:07:54;;;;;;;6.50;2.50;;;20.20;99.90;;;;;;5047489;28;20029;-77
2023/07/14 09:10:36;;;;;;;8.52;2.65;;;20.20;99.90;;;;;;5048415;28;20043;-77
2023/07/14 09:13:01;;;;;;;;;;;20.20;99.90;;;;;;5055757;28;20094;-77
2023/07/14 09:15:27;;;;;;;5.15;2.40;;;20.20;99.90;;;;;;5075630;28;19920;-77
2023/07/14 09:18:15;;;;;;;7.60;2.75;;;20.30;99.90;;;;;;5067328;28;20436;-77
2023/07/14 09:21:06;;;;;;;6.53;2.55;;;20.50;99.90;;;;;;5042901;28;20040;-77
2023/07/14 09:24:04;;;;;;;7.50;3.30;;;20.70;99.90;;;;;;5049076;28;20037;-77
2023/07/14 09:26:50;;;;;;;7.82;3.03;;;20.80;99.90;;;;;;5073846;28;20086;-77
2023/07/14 09:29:21;;;;;;;7.15;2.30;;;20.90;99.90;;;;;;5057074;28;20084;-77
2023/07/14 09:31:56;;;;;;;6.53;2.63;;;20.90;99.90;;;;;;5076463;28;20051;-77
2023/07/14 09:34:48;;;;;;;7.47;2.70;;;20.90;99.90;;;;;;5055220;28;20045;-77
2023/07/14 09:37:19;;;;;;;6.47;2.70;;;21.00;99.90;;;;;;5068303;28;20040;-77
2023/07/14 09:39:46;;;;;;;5.53;2.50;;;21.10;99.90;;;;;;5057134;28;20467;-77
2023/07/14 09:42:36;;;;;;;7.15;2.67;;;21.20;99.90;;;;;;5073953;28;20036;-77
2023/07/14 09:45:14;;;;;;;7.35;2.85;;;21.30;99.90;;;;;;5057449;28;20451;-77
2023/07/14 09:47:43;;;;;;;7.03;2.83;;;21.40;99.90;;;;;;5041840;28;20378;-77
2023/07/14 09:50:14;;;;;;;6.85;2.53;;;21.30;99.90;;;;;;5053881;28;20041;-77
2023/07/14 09:52:49;;;;;;;6.72;2.88;;;21.20;99.90;;;;;;5051467;28;20032;-77
2023/07/14 09:55:15;;;;;;;7.18;2.80;;;21.00;99.90;;;;;;5057026;28;20039;-77
2023/07/14 09:57:43;;;;;;;9.00;3.03;;;21.00;99.90;;;;;;5057016;28;20182;-76
2023/07/14 10:00:22;;;;;;;9.85;3.15;;;21.00;99.90;;;;;;5073997;28;20032;-77
2023/07/14 10:03:03;;;;;;;7.53;2.70;;;21.00;99.90;;;;;;5056865;28;20115;-77
2023/07/14 10:05:51;;;;;;;7.30;2.50;;;20.90;99.90;;;;;;5053728;28;20393;-77
2023/07/14 10:08:33;;;;;;;6.72;2.60;;;20.90;99.90;;;;;;5054039;28;20040;-77
2023/07/14 10:11:11;;;;;;;7.90;2.97;;;20.90;99.90;;;;;;5043044;28;20032;-77
2023/07/14 10:13:37;;;;;;;6.80;2.70;;;20.90;99.90;;;;;;5056918;28;20090;-76
2023/07/14 10:16:15;;;;;;;8.30;2.95;;;20.90;99.90;;;;;;5056505;28;20036;-76
2023/07/14 10:18:57;;;;;;;9.30;2.80;;;20.90;99.90;;;;;;5056708;28;20405;-76
2023/07/14 10:21:34;;;;;;;5.93;2.67;;;20.70;99.90;;;;;;5043705;28;20041;-76
2023/07/14 10:24:00;;;;;;;8.40;2.92;;;20.70;99.90;;;;;;5036602;28;20033;-76
2023/07/14 10:26:42;;;;;;;11.63;3.30;;;20.80;99.90;;;;;;5036833;28;20047;-78
2023/07/14 10:29:16;;;;;;;8.77;2.92;;;20.90;99.90;;;;;;5058634;28;20048;-75
2023/07/14 10:31:58;;;;;;;6.13;3.10;;;21.00;99.90;;;;;;5048565;28;20123;-75
2023/07/14 10:34:54;;;;;;;6.75;3.20;;;21.00;99.90;;;;;;5049094;28;20032;-75
2023/07/14 10:37:24;;;;;;;7.28;3.40;;;20.90;99.90;;;;;;5078295;28;20083;-75
2023/07/14 10:39:59;;;;;;;8.18;3.28;;;20.90;99.90;;;;;;5073187;28;20043;-75
2023/07/14 10:42:29;;;;;;;9.93;3.72;;;20.90;99.90;;;;;;5068600;28;20072;-75
2023/07/14 10:44:57;;;;;;;8.60;3.40;;;21.00;99.90;;;;;;5074404;28;20041;-75
2023/07/14 10:47:28;;;;;;;8.45;3.30;;;21.20;99.90;;;;;;5056369;28;20496;-75
2023/07/14 10:50:15;;;;;;;10.38;3.63;;;21.30;99.90;;;;;;5044145;28;20431;-75
2023/07/14 10:52:43;;;;;;;7.03;2.92;;;21.30;99.90;;;;;;5068351;28;20036;-75
2023/07/14 10:55:36;;;;;;;7.50;3.60;;;21.30;99.90;;;;;;5062809;28;20037;-75
2023/07/14 10:58:13;;;;;;;7.43;3.13;;;21.10;99.90;;;;;;5045610;28;20393;-75
2023/07/14 11:00:51;;;;;;;7.15;3.10;;;21.00;99.90;;;;;;5062004;28;20099;-75
2023/07/14 11:03:26;;;;;;;8.10;3.38;;;21.10;99.90;;;;;;5056492;28;20033;-75
2023/07/14 11:05:57;;;;;;;8.40;3.50;;;21.30;99.90;;;;;;5071739;28;20039;-75
2023/07/14 11:08:25;;;;;;;7.88;3.85;;;21.50;99.90;;;;;;5062492;28;20443;-75
2023/07/14 11:11:33;;;;;;;7.05;3.40;;;21.60;99.90;;;;;;5072428;28;20563;-75
2023/07/14 11:14:23;;;;;;;9.60;3.40;;;21.60;99.90;;;;;;5052141;28;20041;-75
2023/07/14 11:17:19;;;;;;;7.80;3.38;;;21.50;99.90;;;;;;5067502;28;20128;-75
2023/07/14 11:20:12;;;;;;;6.95;3.40;;;21.60;99.90;;;;;;5046868;28;20059;-75
2023/07/14 11:22:49;;;;;;;7.07;3.10;;;21.50;99.90;;;;;;5053622;28;20052;-75
2023/07/14 11:25:24;;;;;;;7.13;3.30;;;21.40;99.90;;;;;;5069839;28;20076;-75
2023/07/14 11:28:11;;;;;;;7.05;3.20;;;21.30;99.90;;;;;;5054984;28;20052;-75
2023/07/14 11:30:40;;;;;;;6.57;3.42;;;21.20;99.90;;;;;;5046565;28;20080;-75
2023/07/14 11:33:24;;;;;;;8.00;3.42;;;21.10;99.90;;;;;;5057648;28;20040;-75
2023/07/14 11:35:58;;;;;;;8.02;3.30;;;21.10;99.90;;;;;;5070487;28;20051;-75
2023/07/14 11:38:46;;;;;;;7.65;3.30;;;21.10;99.90;;;;;;5035863;28;20048;-75
2023/07/14 11:41:14;;;;;;;6.57;2.97;;;21.10;99.90;;;;;;5056986;28;20110;-75
2023/07/14 11:43:41;;;;;;;6.55;3.40;;;21.10;99.90;;;;;;5044538;28;20037;-75
2023/07/14 11:46:09;;;;;;;6.75;3.38;;;21.10;99.90;;;;;;5044292;28;20426;-75
2023/07/14 11:49:03;;;;;;;7.35;3.17;;;21.10;99.90;;;;;;5069704;28;20198;-75
2023/07/14 11:51:48;;;;;;;7.65;3.17;;;21.20;99.90;;;;;;5054359;28;20040;-75
2023/07/14 11:54:42;;;;;;;7.55;3.25;;;21.40;99.90;;;;;;5053582;28;20433;-75
2023/07/14 11:57:16;;;;;;;6.22;3.05;;;21.60;99.90;;;;;;5042431;28;20496;-75
2023/07/14 12:00:14;;;;;;;6.53;3.22;;;21.70;99.90;;;;;;5035468;28;20049;-75
2023/07/14 12:02:46;;;;;;;8.32;3.22;;;21.60;99.90;;;;;;5051425;28;20052;-75
2023/07/14 12:05:15;;;;;;;6.75;3.05;;;21.60;99.90;;;;;;5068286;28;20036;-75
2023/07/14 12:08:05;;;;;;;5.55;2.75;;;21.60;99.90;;;;;;5063707;28;20552;-75
2023/07/14 12:10:42;;;;;;;6.38;3.10;;;21.50;99.90;;;;;;5052174;28;20112;-75
2023/07/14 12:13:27;;;;;;;6.95;2.83;;;21.60;99.90;;;;;;5063541;28;20037;-75
2023/07/14 12:15:55;;;;;;;7.45;3.15;;;21.50;99.90;;;;;;5067482;28;20515;-75
2023/07/14 12:18:34;;;;;;;6.88;3.17;;;21.40;99.90;;;;;;5067100;28;20037;-75
2023/07/14 12:21:18;;;;;;;7.65;3.00;;;21.40;99.90;;;;;;5056568;28;20029;-75
2023/07/14 12:23:54;;;;;;;7.78;3.05;;;21.30;99.90;;;;;;5045207;28;20049;-75
2023/07/14 12:26:31;;;;;;;5.75;3.03;;;21.20;99.90;;;;;;5060956;28;20045;-75
2023/07/14 12:29:01;;;;;;;8.40;3.30;;;21.10;99.90;;;;;;5073084;28;20048;-75
2023/07/14 12:31:34;;;;;;;7.10;3.30;;;21.10;99.90;;;;;;5066320;28;20037;-75
2023/07/14 12:34:00;;;;;;;8.57;3.33;;;21.10;99.90;;;;;;5051346;28;20296;-75
2023/07/14 12:36:29;;;;;;;6.28;3.20;;;21.10;99.90;;;;;;5049946;28;20173;-75
2023/07/14 12:38:55;;;;;;;7.38;3.20;;;21.00;99.90;;;;;;5070670;28;20470;-75
2023/07/14 12:41:23;;;;;;;7.45;3.40;;;21.10;99.90;;;;;;5049417;28;20091;-75
2023/07/14 12:43:52;;;;;;;6.57;3.10;;;21.00;99.90;;;;;;5077609;28;20044;-75
2023/07/14 12:46:29;;;;;;;6.53;2.83;;;21.00;99.90;;;;;;5050779;28;20033;-75
2023/07/14 12:49:27;;;;;;;7.03;3.90;;;21.00;99.90;;;;;;5035085;28;20048;-75
2023/07/14 12:51:54;;;;;;;8.45;4.00;;;21.00;99.90;;;;;;5038992;28;20121;-75
2023/07/14 12:54:26;;;;;;;7.90;3.90;;;21.00;99.90;;;;;;5049585;28;20362;-75
2023/07/14 12:56:58;;;;;;;9.02;4.30;;;20.90;99.90;;;;;;5050525;28;20041;-75
2023/07/14 12:59:24;;;;;;;10.43;4.40;;;20.90;99.90;;;;;;5039591;28;20401;-75